sensor_id;sensor_type;location;lat;lon;timestamp;temperature;humidity
69546;SHT31;56766;52.260;20.746;2022-10-04T00:03:36;10.98;85.10
69546;SHT31;56766;52.260;20.746;2022-10-04T00:06:19;11.00;85.02
69546;SHT31;56766;52.260;20.746;2022-10-04T00:09:19;11.02;85.02
69546;SHT31;56766;52.260;20.746;2022-10-04T00:12:04;11.06;84.90
69546;SHT31;56766;52.260;20.746;2022-10-04T00:14:36;11.09;84.92
69546;SHT31;56766;52.260;20.746;2022-10-04T00:17:16;11.11;84.89
69546;SHT31;56766;52.260;20.746;2022-10-04T00:19:49;11.13;84.89
69546;SHT31;56766;52.260;20.746;2022-10-04T00:22:22;11.15;84.83
69546;SHT31;56766;52.260;20.746;2022-10-04T00:27:35;11.16;84.73
69546;SHT31;56766;52.260;20.746;2022-10-04T00:40:35;11.17;84.50
69546;SHT31;56766;52.260;20.746;2022-10-04T00:46:14;11.16;84.42
69546;SHT31;56766;52.260;20.746;2022-10-04T00:49:05;11.17;84.33
69546;SHT31;56766;52.260;20.746;2022-10-04T00:51:45;11.15;84.30
69546;SHT31;56766;52.260;20.746;2022-10-04T00:54:33;11.16;84.28
69546;SHT31;56766;52.260;20.746;2022-10-04T00:57:55;11.15;84.30
69546;SHT31;56766;52.260;20.746;2022-10-04T01:00:13;11.13;84.20
69546;SHT31;56766;52.260;20.746;2022-10-04T01:03:06;11.14;84.19
69546;SHT31;56766;52.260;20.746;2022-10-04T01:05:48;11.12;84.20
69546;SHT31;56766;52.260;20.746;2022-10-04T01:08:29;11.09;84.20
69546;SHT31;56766;52.260;20.746;2022-10-04T01:11:04;11.05;84.21
69546;SHT31;56766;52.260;20.746;2022-10-04T01:19:53;10.74;84.47
69546;SHT31;56766;52.260;20.746;2022-10-04T01:22:41;10.67;84.55
69546;SHT31;56766;52.260;20.746;2022-10-04T01:25:48;10.57;84.69
69546;SHT31;56766;52.260;20.746;2022-10-04T01:28:16;10.50;84.86
69546;SHT31;56766;52.260;20.746;2022-10-04T01:30:43;10.44;84.90
69546;SHT31;56766;52.260;20.746;2022-10-04T01:33:11;10.41;84.96
69546;SHT31;56766;52.260;20.746;2022-10-04T01:35:39;10.38;85.02
69546;SHT31;56766;52.260;20.746;2022-10-04T01:38:06;10.36;85.17
69546;SHT31;56766;52.260;20.746;2022-10-04T01:40:40;10.35;85.16
69546;SHT31;56766;52.260;20.746;2022-10-04T01:43:21;10.34;85.33
69546;SHT31;56766;52.260;20.746;2022-10-04T01:45:59;10.32;85.36
69546;SHT31;56766;52.260;20.746;2022-10-04T01:48:37;10.31;85.36
69546;SHT31;56766;52.260;20.746;2022-10-04T01:51:18;10.30;85.30
69546;SHT31;56766;52.260;20.746;2022-10-04T01:54:10;10.29;85.41
69546;SHT31;56766;52.260;20.746;2022-10-04T01:59:48;10.29;85.40
69546;SHT31;56766;52.260;20.746;2022-10-04T02:03:14;10.28;85.47
69546;SHT31;56766;52.260;20.746;2022-10-04T02:05:38;10.29;85.40
69546;SHT31;56766;52.260;20.746;2022-10-04T02:08:16;10.31;85.36
69546;SHT31;56766;52.260;20.746;2022-10-04T02:10:50;10.33;85.25
69546;SHT31;56766;52.260;20.746;2022-10-04T02:13:22;10.37;85.12
69546;SHT31;56766;52.260;20.746;2022-10-04T02:15:56;10.40;84.96
69546;SHT31;56766;52.260;20.746;2022-10-04T02:18:26;10.37;84.83
69546;SHT31;56766;52.260;20.746;2022-10-04T02:20:55;10.34;84.80
69546;SHT31;56766;52.260;20.746;2022-10-04T02:23:25;10.32;84.80
69546;SHT31;56766;52.260;20.746;2022-10-04T02:25:53;10.31;84.82
69546;SHT31;56766;52.260;20.746;2022-10-04T02:28:20;10.31;84.83
69546;SHT31;56766;52.260;20.746;2022-10-04T02:30:50;10.34;84.78
69546;SHT31;56766;52.260;20.746;2022-10-04T02:33:43;10.34;84.73
69546;SHT31;56766;52.260;20.746;2022-10-04T02:36:13;10.37;84.70
69546;SHT31;56766;52.260;20.746;2022-10-04T02:39:23;10.35;84.70
69546;SHT31;56766;52.260;20.746;2022-10-04T02:42:08;10.35;84.76
69546;SHT31;56766;52.260;20.746;2022-10-04T02:44:55;10.39;84.70
69546;SHT31;56766;52.260;20.746;2022-10-04T02:47:42;10.38;84.72
69546;SHT31;56766;52.260;20.746;2022-10-04T02:56:42;10.23;85.25
69546;SHT31;56766;52.260;20.746;2022-10-04T02:59:15;10.24;85.30
69546;SHT31;56766;52.260;20.746;2022-10-04T03:01:58;10.25;85.41
69546;SHT31;56766;52.260;20.746;2022-10-04T03:04:32;10.27;85.62
69546;SHT31;56766;52.260;20.746;2022-10-04T03:07:07;10.28;85.60
69546;SHT31;56766;52.260;20.746;2022-10-04T03:09:37;10.31;85.76
69546;SHT31;56766;52.260;20.746;2022-10-04T03:12:11;10.31;85.93
69546;SHT31;56766;52.260;20.746;2022-10-04T03:14:39;10.33;85.95
69546;SHT31;56766;52.260;20.746;2022-10-04T03:17:07;10.37;86.02
69546;SHT31;56766;52.260;20.746;2022-10-04T03:19:35;10.43;86.08
69546;SHT31;56766;52.260;20.746;2022-10-04T03:22:08;10.49;85.98
69546;SHT31;56766;52.260;20.746;2022-10-04T03:24:50;10.51;85.96
69546;SHT31;56766;52.260;20.746;2022-10-04T03:27:28;10.53;86.01
69546;SHT31;56766;52.260;20.746;2022-10-04T03:30:00;10.55;86.00
69546;SHT31;56766;52.260;20.746;2022-10-04T03:32:28;10.57;85.97
69546;SHT31;56766;52.260;20.746;2022-10-04T03:35:02;10.57;85.94
69546;SHT31;56766;52.260;20.746;2022-10-04T03:37:37;10.57;85.99
69546;SHT31;56766;52.260;20.746;2022-10-04T03:40:08;10.57;85.98
69546;SHT31;56766;52.260;20.746;2022-10-04T03:42:38;10.58;86.17
69546;SHT31;56766;52.260;20.746;2022-10-04T03:45:13;10.58;86.17
69546;SHT31;56766;52.260;20.746;2022-10-04T03:47:46;10.57;86.15
69546;SHT31;56766;52.260;20.746;2022-10-04T03:50:24;10.55;86.17
69546;SHT31;56766;52.260;20.746;2022-10-04T03:52:56;10.55;86.32
69546;SHT31;56766;52.260;20.746;2022-10-04T03:55:38;10.54;86.21
69546;SHT31;56766;52.260;20.746;2022-10-04T03:58:16;10.52;86.31
69546;SHT31;56766;52.260;20.746;2022-10-04T04:01:20;10.54;86.33
69546;SHT31;56766;52.260;20.746;2022-10-04T04:07:00;10.58;86.29
69546;SHT31;56766;52.260;20.746;2022-10-04T04:14:57;10.61;86.27
69546;SHT31;56766;52.260;20.746;2022-10-04T04:19:58;10.66;86.30
69546;SHT31;56766;52.260;20.746;2022-10-04T04:22:30;10.69;86.21
69546;SHT31;56766;52.260;20.746;2022-10-04T04:25:05;10.72;86.17
69546;SHT31;56766;52.260;20.746;2022-10-04T04:27:42;10.73;86.13
69546;SHT31;56766;52.260;20.746;2022-10-04T04:30:16;10.71;86.14
69546;SHT31;56766;52.260;20.746;2022-10-04T04:32:51;10.70;86.19
69546;SHT31;56766;52.260;20.746;2022-10-04T04:35:29;10.71;86.17
69546;SHT31;56766;52.260;20.746;2022-10-04T04:38:03;10.71;86.12
69546;SHT31;56766;52.260;20.746;2022-10-04T04:40:39;10.71;86.01
69546;SHT31;56766;52.260;20.746;2022-10-04T04:43:16;10.70;85.93
69546;SHT31;56766;52.260;20.746;2022-10-04T04:45:47;10.70;85.89
69546;SHT31;56766;52.260;20.746;2022-10-04T04:48:17;10.71;85.82
69546;SHT31;56766;52.260;20.746;2022-10-04T04:51:03;10.72;85.80
69546;SHT31;56766;52.260;20.746;2022-10-04T04:53:31;10.71;85.75
69546;SHT31;56766;52.260;20.746;2022-10-04T04:56:04;10.71;85.70
69546;SHT31;56766;52.260;20.746;2022-10-04T04:58:36;10.71;85.76
69546;SHT31;56766;52.260;20.746;2022-10-04T05:01:24;10.73;85.72
69546;SHT31;56766;52.260;20.746;2022-10-04T05:06:43;10.77;85.69
69546;SHT31;56766;52.260;20.746;2022-10-04T05:09:23;10.78;85.70
69546;SHT31;56766;52.260;20.746;2022-10-04T05:14:52;10.87;85.60
69546;SHT31;56766;52.260;20.746;2022-10-04T05:17:24;10.92;85.54
69546;SHT31;56766;52.260;20.746;2022-10-04T05:19:59;10.96;85.50
69546;SHT31;56766;52.260;20.746;2022-10-04T05:22:31;10.98;85.40
69546;SHT31;56766;52.260;20.746;2022-10-04T05:25:08;11.01;85.39
69546;SHT31;56766;52.260;20.746;2022-10-04T05:27:43;11.03;85.38
69546;SHT31;56766;52.260;20.746;2022-10-04T05:30:19;11.07;85.39
69546;SHT31;56766;52.260;20.746;2022-10-04T05:33:44;11.11;85.29
69546;SHT31;56766;52.260;20.746;2022-10-04T05:39:10;11.20;85.11
69546;SHT31;56766;52.260;20.746;2022-10-04T05:42:01;11.22;85.06
69546;SHT31;56766;52.260;20.746;2022-10-04T05:44:57;11.23;85.03
69546;SHT31;56766;52.260;20.746;2022-10-04T05:47:29;11.26;84.97
69546;SHT31;56766;52.260;20.746;2022-10-04T05:49:59;11.27;84.91
69546;SHT31;56766;52.260;20.746;2022-10-04T05:52:36;11.28;84.90
69546;SHT31;56766;52.260;20.746;2022-10-04T05:59:19;11.39;84.81
69546;SHT31;56766;52.260;20.746;2022-10-04T06:01:53;11.44;84.70
69546;SHT31;56766;52.260;20.746;2022-10-04T06:11:17;11.55;84.49
69546;SHT31;56766;52.260;20.746;2022-10-04T06:17:45;11.68;84.14
69546;SHT31;56766;52.260;20.746;2022-10-04T06:23:01;11.79;83.88
69546;SHT31;56766;52.260;20.746;2022-10-04T06:26:17;11.84;83.81
69546;SHT31;56766;52.260;20.746;2022-10-04T06:28:48;11.88;83.75
69546;SHT31;56766;52.260;20.746;2022-10-04T06:40:08;12.15;83.20
69546;SHT31;56766;52.260;20.746;2022-10-04T06:43:30;12.27;82.92
69546;SHT31;56766;52.260;20.746;2022-10-04T06:46:39;12.43;82.66
69546;SHT31;56766;52.260;20.746;2022-10-04T06:52:28;12.65;82.00
69546;SHT31;56766;52.260;20.746;2022-10-04T06:55:47;12.74;81.80
69546;SHT31;56766;52.260;20.746;2022-10-04T07:01:56;12.90;81.30
69546;SHT31;56766;52.260;20.746;2022-10-04T07:07:31;13.05;80.69
69546;SHT31;56766;52.260;20.746;2022-10-04T07:16:26;13.27;79.43
69546;SHT31;56766;52.260;20.746;2022-10-04T07:19:19;13.31;79.30
69546;SHT31;56766;52.260;20.746;2022-10-04T07:24:50;13.40;78.67
69546;SHT31;56766;52.260;20.746;2022-10-04T07:27:51;13.48;78.75
69546;SHT31;56766;52.260;20.746;2022-10-04T07:30:44;13.52;77.95
69546;SHT31;56766;52.260;20.746;2022-10-04T07:33:24;13.67;77.98
69546;SHT31;56766;52.260;20.746;2022-10-04T07:36:05;13.78;77.27
69546;SHT31;56766;52.260;20.746;2022-10-04T07:39:06;13.81;76.92
69546;SHT31;56766;52.260;20.746;2022-10-04T07:41:51;13.83;76.68
69546;SHT31;56766;52.260;20.746;2022-10-04T07:47:20;13.72;76.03
69546;SHT31;56766;52.260;20.746;2022-10-04T07:49:53;13.77;75.93
69546;SHT31;56766;52.260;20.746;2022-10-04T08:01:05;14.00;75.23
69546;SHT31;56766;52.260;20.746;2022-10-04T08:03:47;14.05;74.96
69546;SHT31;56766;52.260;20.746;2022-10-04T08:12:42;13.81;74.23
69546;SHT31;56766;52.260;20.746;2022-10-04T08:15:43;13.74;74.39
69546;SHT31;56766;52.260;20.746;2022-10-04T08:21:08;13.93;73.55
69546;SHT31;56766;52.260;20.746;2022-10-04T08:24:03;14.01;73.39
69546;SHT31;56766;52.260;20.746;2022-10-04T08:35:35;14.61;72.29
69546;SHT31;56766;52.260;20.746;2022-10-04T08:41:35;14.56;69.72
69546;SHT31;56766;52.260;20.746;2022-10-04T08:50:12;14.65;70.36
69546;SHT31;56766;52.260;20.746;2022-10-04T08:53:04;14.52;70.63
69546;SHT31;56766;52.260;20.746;2022-10-04T09:05:24;14.95;70.55
69546;SHT31;56766;52.260;20.746;2022-10-04T09:35:09;15.26;65.46
69546;SHT31;56766;52.260;20.746;2022-10-04T09:38:18;15.16;66.75
69546;SHT31;56766;52.260;20.746;2022-10-04T09:47:15;14.99;67.71
69546;SHT31;56766;52.260;20.746;2022-10-04T09:56:37;15.21;66.96
69546;SHT31;56766;52.260;20.746;2022-10-04T10:00:00;15.39;67.76
69546;SHT31;56766;52.260;20.746;2022-10-04T10:08:32;16.33;65.78
69546;SHT31;56766;52.260;20.746;2022-10-04T10:15:26;16.69;64.04
69546;SHT31;56766;52.260;20.746;2022-10-04T10:26:45;16.92;62.65
69546;SHT31;56766;52.260;20.746;2022-10-04T10:29:42;16.81;62.08
69546;SHT31;56766;52.260;20.746;2022-10-04T10:38:53;16.46;62.21
69546;SHT31;56766;52.260;20.746;2022-10-04T10:48:04;16.07;62.40
69546;SHT31;56766;52.260;20.746;2022-10-04T11:00:17;16.54;62.22
69546;SHT31;56766;52.260;20.746;2022-10-04T11:03:02;16.58;61.46
69546;SHT31;56766;52.260;20.746;2022-10-04T11:06:13;16.46;62.42
69546;SHT31;56766;52.260;20.746;2022-10-04T11:20:54;15.84;63.52
69546;SHT31;56766;52.260;20.746;2022-10-04T11:38:47;16.75;62.36
69546;SHT31;56766;52.260;20.746;2022-10-04T11:41:50;16.75;61.07
69546;SHT31;56766;52.260;20.746;2022-10-04T11:47:34;16.58;61.57
69546;SHT31;56766;52.260;20.746;2022-10-04T11:59:45;16.93;63.73
69546;SHT31;56766;52.260;20.746;2022-10-04T12:03:41;17.36;61.77
69546;SHT31;56766;52.260;20.746;2022-10-04T12:06:19;17.53;62.15
69546;SHT31;56766;52.260;20.746;2022-10-04T12:12:41;17.03;61.14
69546;SHT31;56766;52.260;20.746;2022-10-04T12:28:02;16.15;63.30
69546;SHT31;56766;52.260;20.746;2022-10-04T12:34:03;15.76;64.65
69546;SHT31;56766;52.260;20.746;2022-10-04T12:37:06;15.77;65.30
69546;SHT31;56766;52.260;20.746;2022-10-04T12:42:58;15.90;64.52
69546;SHT31;56766;52.260;20.746;2022-10-04T12:46:21;15.96;64.45
69546;SHT31;56766;52.260;20.746;2022-10-04T12:49:44;16.09;64.20
69546;SHT31;56766;52.260;20.746;2022-10-04T12:52:23;16.18;64.38
69546;SHT31;56766;52.260;20.746;2022-10-04T12:55:13;16.35;64.40
69546;SHT31;56766;52.260;20.746;2022-10-04T12:59:00;16.49;64.13
69546;SHT31;56766;52.260;20.746;2022-10-04T13:04:46;16.53;63.79
69546;SHT31;56766;52.260;20.746;2022-10-04T13:17:12;16.30;63.79
69546;SHT31;56766;52.260;20.746;2022-10-04T13:20:31;16.33;64.48
69546;SHT31;56766;52.260;20.746;2022-10-04T13:26:29;16.90;64.68
69546;SHT31;56766;52.260;20.746;2022-10-04T13:29:14;17.06;63.27
69546;SHT31;56766;52.260;20.746;2022-10-04T13:32:06;17.07;63.18
69546;SHT31;56766;52.260;20.746;2022-10-04T13:34:50;17.05;63.03
69546;SHT31;56766;52.260;20.746;2022-10-04T13:46:20;16.93;62.86
69546;SHT31;56766;52.260;20.746;2022-10-04T13:51:38;16.72;63.14
69546;SHT31;56766;52.260;20.746;2022-10-04T13:58:04;16.58;64.35
69546;SHT31;56766;52.260;20.746;2022-10-04T14:07:43;16.24;64.33
69546;SHT31;56766;52.260;20.746;2022-10-04T14:10:36;16.17;64.88
69546;SHT31;56766;52.260;20.746;2022-10-04T14:35:20;15.89;64.76
69546;SHT31;56766;52.260;20.746;2022-10-04T14:38:17;15.81;65.07
69546;SHT31;56766;52.260;20.746;2022-10-04T14:44:57;15.73;66.21
69546;SHT31;56766;52.260;20.746;2022-10-04T15:07:37;15.16;67.89
69546;SHT31;56766;52.260;20.746;2022-10-04T15:10:22;15.11;67.90
69546;SHT31;56766;52.260;20.746;2022-10-04T15:13:02;15.08;68.15
69546;SHT31;56766;52.260;20.746;2022-10-04T15:18:49;15.03;68.25
69546;SHT31;56766;52.260;20.746;2022-10-04T15:21:42;14.96;68.47
69546;SHT31;56766;52.260;20.746;2022-10-04T15:24:23;14.83;68.53
69546;SHT31;56766;52.260;20.746;2022-10-04T15:30:21;14.56;68.79
69546;SHT31;56766;52.260;20.746;2022-10-04T15:33:07;14.45;69.08
69546;SHT31;56766;52.260;20.746;2022-10-04T15:38:48;14.27;69.52
69546;SHT31;56766;52.260;20.746;2022-10-04T15:41:41;14.22;69.88
69546;SHT31;56766;52.260;20.746;2022-10-04T15:51:06;14.08;70.41
69546;SHT31;56766;52.260;20.746;2022-10-04T15:59:15;13.91;70.75
69546;SHT31;56766;52.260;20.746;2022-10-04T16:15:17;13.28;72.05
69546;SHT31;56766;52.260;20.746;2022-10-04T16:21:09;13.08;72.52
69546;SHT31;56766;52.260;20.746;2022-10-04T16:32:35;12.76;73.64
69546;SHT31;56766;52.260;20.746;2022-10-04T16:35:34;12.65;73.87
69546;SHT31;56766;52.260;20.746;2022-10-04T16:41:00;12.47;74.46
69546;SHT31;56766;52.260;20.746;2022-10-04T16:43:54;12.39;74.58
69546;SHT31;56766;52.260;20.746;2022-10-04T16:46:40;12.28;74.75
69546;SHT31;56766;52.260;20.746;2022-10-04T16:49:44;12.16;74.99
69546;SHT31;56766;52.260;20.746;2022-10-04T16:56:11;11.96;75.42
69546;SHT31;56766;52.260;20.746;2022-10-04T16:58:52;11.85;75.97
69546;SHT31;56766;52.260;20.746;2022-10-04T17:07:02;11.66;76.45
69546;SHT31;56766;52.260;20.746;2022-10-04T17:09:51;11.61;76.73
69546;SHT31;56766;52.260;20.746;2022-10-04T17:12:41;11.58;76.89
69546;SHT31;56766;52.260;20.746;2022-10-04T17:18:34;11.59;77.03
69546;SHT31;56766;52.260;20.746;2022-10-04T17:30:13;11.54;77.22
69546;SHT31;56766;52.260;20.746;2022-10-04T17:38:59;11.31;77.47
69546;SHT31;56766;52.260;20.746;2022-10-04T17:41:55;11.24;77.69
69546;SHT31;56766;52.260;20.746;2022-10-04T17:54:17;10.99;78.15
69546;SHT31;56766;52.260;20.746;2022-10-04T17:57:51;10.93;78.37
69546;SHT31;56766;52.260;20.746;2022-10-04T18:03:31;10.81;78.50
69546;SHT31;56766;52.260;20.746;2022-10-04T18:09:09;10.69;78.70
69546;SHT31;56766;52.260;20.746;2022-10-04T18:11:59;10.68;78.70
69546;SHT31;56766;52.260;20.746;2022-10-04T18:18:12;10.64;78.86
69546;SHT31;56766;52.260;20.746;2022-10-04T18:23:27;10.54;78.99
69546;SHT31;56766;52.260;20.746;2022-10-04T18:26:17;10.50;79.18
69546;SHT31;56766;52.260;20.746;2022-10-04T18:28:49;10.49;79.16
69546;SHT31;56766;52.260;20.746;2022-10-04T18:31:35;10.48;79.06
69546;SHT31;56766;52.260;20.746;2022-10-04T18:34:28;10.41;78.93
69546;SHT31;56766;52.260;20.746;2022-10-04T18:37:13;10.36;79.16
69546;SHT31;56766;52.260;20.746;2022-10-04T18:39:47;10.33;79.23
69546;SHT31;56766;52.260;20.746;2022-10-04T18:42:19;10.29;79.21
69546;SHT31;56766;52.260;20.746;2022-10-04T18:45:03;10.26;79.28
69546;SHT31;56766;52.260;20.746;2022-10-04T18:47:53;10.20;79.33
69546;SHT31;56766;52.260;20.746;2022-10-04T18:50:22;10.19;79.29
69546;SHT31;56766;52.260;20.746;2022-10-04T18:53:05;10.15;79.30
69546;SHT31;56766;52.260;20.746;2022-10-04T19:04:54;9.97;79.44
69546;SHT31;56766;52.260;20.746;2022-10-04T19:11:15;9.88;79.66
69546;SHT31;56766;52.260;20.746;2022-10-04T19:13:59;9.82;79.88
69546;SHT31;56766;52.260;20.746;2022-10-04T19:25:35;9.42;79.70
69546;SHT31;56766;52.260;20.746;2022-10-04T19:28:30;9.33;79.82
69546;SHT31;56766;52.260;20.746;2022-10-04T19:31:25;9.25;79.88
69546;SHT31;56766;52.260;20.746;2022-10-04T19:34:13;9.19;79.96
69546;SHT31;56766;52.260;20.746;2022-10-04T19:37:35;9.11;80.21
69546;SHT31;56766;52.260;20.746;2022-10-04T20:01:17;8.81;81.16
69546;SHT31;56766;52.260;20.746;2022-10-04T20:03:48;8.75;81.09
69546;SHT31;56766;52.260;20.746;2022-10-04T20:06:46;8.72;81.24
69546;SHT31;56766;52.260;20.746;2022-10-04T20:12:27;8.70;81.30
69546;SHT31;56766;52.260;20.746;2022-10-04T20:15:41;8.69;81.49
69546;SHT31;56766;52.260;20.746;2022-10-04T20:21:07;8.65;81.54
69546;SHT31;56766;52.260;20.746;2022-10-04T20:26:33;8.57;81.59
69546;SHT31;56766;52.260;20.746;2022-10-04T20:35:11;8.61;81.83
69546;SHT31;56766;52.260;20.746;2022-10-04T20:38:14;8.61;81.57
69546;SHT31;56766;52.260;20.746;2022-10-04T20:40:45;8.56;81.44
69546;SHT31;56766;52.260;20.746;2022-10-04T20:45:49;8.52;81.87
69546;SHT31;56766;52.260;20.746;2022-10-04T20:48:26;8.50;82.14
69546;SHT31;56766;52.260;20.746;2022-10-04T20:51:07;8.52;82.06
69546;SHT31;56766;52.260;20.746;2022-10-04T20:53:41;8.47;81.84
69546;SHT31;56766;52.260;20.746;2022-10-04T20:58:40;8.38;81.75
69546;SHT31;56766;52.260;20.746;2022-10-04T21:01:38;8.31;81.74
69546;SHT31;56766;52.260;20.746;2022-10-04T21:04:21;8.28;81.97
69546;SHT31;56766;52.260;20.746;2022-10-04T21:07:25;8.30;82.19
69546;SHT31;56766;52.260;20.746;2022-10-04T21:09:52;8.30;82.23
69546;SHT31;56766;52.260;20.746;2022-10-04T21:17:43;8.33;82.53
69546;SHT31;56766;52.260;20.746;2022-10-04T21:20:49;8.36;82.55
69546;SHT31;56766;52.260;20.746;2022-10-04T21:28:54;8.37;82.67
69546;SHT31;56766;52.260;20.746;2022-10-04T21:31:24;8.37;82.52
69546;SHT31;56766;52.260;20.746;2022-10-04T21:33:50;8.34;82.46
69546;SHT31;56766;52.260;20.746;2022-10-04T21:36:17;8.32;82.40
69546;SHT31;56766;52.260;20.746;2022-10-04T21:38:43;8.25;82.27
69546;SHT31;56766;52.260;20.746;2022-10-04T21:41:10;8.19;82.13
69546;SHT31;56766;52.260;20.746;2022-10-04T21:43:37;8.09;82.16
69546;SHT31;56766;52.260;20.746;2022-10-04T21:46:03;8.02;82.12
69546;SHT31;56766;52.260;20.746;2022-10-04T21:48:30;8.00;82.20
69546;SHT31;56766;52.260;20.746;2022-10-04T21:50:58;7.98;82.29
69546;SHT31;56766;52.260;20.746;2022-10-04T21:53:25;7.96;82.13
69546;SHT31;56766;52.260;20.746;2022-10-04T21:55:52;7.89;82.09
69546;SHT31;56766;52.260;20.746;2022-10-04T21:58:18;7.82;82.25
69546;SHT31;56766;52.260;20.746;2022-10-04T22:00:45;7.79;82.34
69546;SHT31;56766;52.260;20.746;2022-10-04T22:03:12;7.74;82.52
69546;SHT31;56766;52.260;20.746;2022-10-04T22:05:38;7.73;82.74
69546;SHT31;56766;52.260;20.746;2022-10-04T22:08:05;7.74;82.89
69546;SHT31;56766;52.260;20.746;2022-10-04T22:10:32;7.73;82.79
69546;SHT31;56766;52.260;20.746;2022-10-04T22:12:58;7.69;82.60
69546;SHT31;56766;52.260;20.746;2022-10-04T22:15:26;7.64;82.67
69546;SHT31;56766;52.260;20.746;2022-10-04T22:17:54;7.63;82.72
69546;SHT31;56766;52.260;20.746;2022-10-04T22:20:23;7.64;82.76
69546;SHT31;56766;52.260;20.746;2022-10-04T22:22:53;7.63;82.86
69546;SHT31;56766;52.260;20.746;2022-10-04T22:25:25;7.64;83.01
69546;SHT31;56766;52.260;20.746;2022-10-04T22:27:53;7.66;83.20
69546;SHT31;56766;52.260;20.746;2022-10-04T22:30:21;7.69;83.34
69546;SHT31;56766;52.260;20.746;2022-10-04T22:32:55;7.77;83.51
69546;SHT31;56766;52.260;20.746;2022-10-04T22:35:26;7.84;83.57
69546;SHT31;56766;52.260;20.746;2022-10-04T22:37:55;7.90;83.76
69546;SHT31;56766;52.260;20.746;2022-10-04T22:40:23;7.99;83.78
69546;SHT31;56766;52.260;20.746;2022-10-04T22:42:54;8.07;83.79
69546;SHT31;56766;52.260;20.746;2022-10-04T22:45:28;8.14;83.88
69546;SHT31;56766;52.260;20.746;2022-10-04T22:48:01;8.19;83.85
69546;SHT31;56766;52.260;20.746;2022-10-04T22:50:37;8.24;84.00
69546;SHT31;56766;52.260;20.746;2022-10-04T22:53:13;8.29;84.14
69546;SHT31;56766;52.260;20.746;2022-10-04T22:55:47;8.35;84.22
69546;SHT31;56766;52.260;20.746;2022-10-04T22:58:16;8.41;84.11
69546;SHT31;56766;52.260;20.746;2022-10-04T23:00:44;8.47;84.10
69546;SHT31;56766;52.260;20.746;2022-10-04T23:03:27;8.52;84.11
69546;SHT31;56766;52.260;20.746;2022-10-04T23:05:58;8.57;84.13
69546;SHT31;56766;52.260;20.746;2022-10-04T23:08:28;8.61;83.98
69546;SHT31;56766;52.260;20.746;2022-10-04T23:10:56;8.62;83.94
69546;SHT31;56766;52.260;20.746;2022-10-04T23:13:26;8.63;83.84
69546;SHT31;56766;52.260;20.746;2022-10-04T23:15:58;8.65;83.87
69546;SHT31;56766;52.260;20.746;2022-10-04T23:18:32;8.68;83.83
69546;SHT31;56766;52.260;20.746;2022-10-04T23:21:00;8.67;83.82
69546;SHT31;56766;52.260;20.746;2022-10-04T23:23:30;8.69;83.78
69546;SHT31;56766;52.260;20.746;2022-10-04T23:25:56;8.72;83.76
69546;SHT31;56766;52.260;20.746;2022-10-04T23:28:24;8.74;83.65
69546;SHT31;56766;52.260;20.746;2022-10-04T23:31:22;8.75;83.67
69546;SHT31;56766;52.260;20.746;2022-10-04T23:33:53;8.79;83.67
69546;SHT31;56766;52.260;20.746;2022-10-04T23:36:23;8.82;83.68
69546;SHT31;56766;52.260;20.746;2022-10-04T23:38:59;8.86;83.61
69546;SHT31;56766;52.260;20.746;2022-10-04T23:41:27;8.89;83.61
69546;SHT31;56766;52.260;20.746;2022-10-04T23:43:54;8.92;83.60
69546;SHT31;56766;52.260;20.746;2022-10-04T23:46:22;8.94;83.62
69546;SHT31;56766;52.260;20.746;2022-10-04T23:48:50;8.95;83.70
69546;SHT31;56766;52.260;20.746;2022-10-04T23:51:18;8.96;83.81
69546;SHT31;56766;52.260;20.746;2022-10-04T23:53:47;8.99;83.79
69546;SHT31;56766;52.260;20.746;2022-10-04T23:56:24;9.01;83.79
69546;SHT31;56766;52.260;20.746;2022-10-04T23:58:57;9.05;83.76
